createdAt,value
2018-09-07T00:04:09.061Z,16.6
2018-09-07T00:09:11.561Z,16.5
2018-09-07T00:14:13.988Z,16.3
2018-09-07T00:19:16.460Z,16.1
2018-09-07T00:24:18.895Z,16
2018-09-07T00:29:21.358Z,15.8
2018-09-07T00:34:23.794Z,15.6
2018-09-07T00:39:26.613Z,15.6
2018-09-07T00:44:28.717Z,15.5
2018-09-07T00:49:31.215Z,15.4
2018-09-07T00:54:33.727Z,15.4
2018-09-07T00:59:36.178Z,15.5
2018-09-07T01:04:38.581Z,15.7
2018-09-07T01:09:41.094Z,15.7
2018-09-07T01:14:43.459Z,15.9
2018-09-07T01:19:45.950Z,16.1
2018-09-07T01:24:48.401Z,16.4
2018-09-07T01:29:50.840Z,16.7
2018-09-07T01:34:53.529Z,16.9
2018-09-07T01:39:55.819Z,17
2018-09-07T01:44:58.421Z,17
2018-09-07T01:50:00.779Z,16.9
2018-09-07T01:55:03.167Z,16.8
2018-09-07T02:00:05.638Z,16.8
2018-09-07T02:05:08.146Z,16.7
2018-09-07T02:15:12.966Z,16.3
2018-09-07T02:20:15.455Z,16.1
2018-09-07T02:25:17.889Z,16
2018-09-07T02:30:20.403Z,16
2018-09-07T02:35:23.152Z,15.8
2018-09-07T02:40:25.256Z,15.7
2018-09-07T02:45:27.760Z,15.6
2018-09-07T02:50:30.174Z,15.6
2018-09-07T02:55:32.635Z,15.5
2018-09-07T03:00:35.092Z,15.5
2018-09-07T03:05:37.550Z,15.4
2018-09-07T03:10:39.997Z,15.4
2018-09-07T03:15:42.473Z,15.4
2018-09-07T03:20:44.908Z,15.3
2018-09-07T03:25:47.381Z,15.3
2018-09-07T03:30:49.836Z,15.3
2018-09-07T03:35:52.649Z,15.2
2018-09-07T03:40:54.754Z,15.3
2018-09-07T03:45:57.263Z,15.4
2018-09-07T03:50:59.675Z,15.5
2018-09-07T03:56:02.150Z,15.5
2018-09-07T04:01:09.627Z,15.5
2018-09-07T04:06:07.070Z,15.5
2018-09-07T04:11:09.546Z,15.6
2018-09-07T04:16:11.970Z,15.7
2018-09-07T04:21:14.446Z,15.8
2018-09-07T04:26:16.904Z,15.9
2018-09-07T04:31:19.347Z,15.8
2018-09-07T04:36:21.823Z,15.7
2018-09-07T04:41:24.249Z,15.8
2018-09-07T04:46:26.745Z,15.8
2018-09-07T04:51:29.542Z,15.8
2018-09-07T04:56:31.727Z,15.9
2018-09-07T05:01:34.077Z,15.9
2018-09-07T05:06:36.554Z,15.9
2018-09-07T05:11:39.001Z,15.8
2018-09-07T05:16:41.460Z,15.8
2018-09-07T05:21:43.929Z,15.8
2018-09-07T05:26:46.426Z,15.8
2018-09-07T05:31:48.916Z,15.8
2018-09-07T05:36:51.298Z,15.8
2018-09-07T05:41:53.786Z,15.8
2018-09-07T05:46:56.246Z,15.7
2018-09-07T05:51:58.690Z,15.7
2018-09-07T05:57:01.142Z,15.7
2018-09-07T06:02:03.586Z,15.7
2018-09-07T06:07:06.045Z,15.8
2018-09-07T06:12:08.693Z,16
2018-09-07T06:17:10.945Z,16.1
2018-09-07T06:22:13.527Z,16.1
2018-09-07T06:27:15.891Z,16.2
2018-09-07T06:32:18.564Z,16.2
2018-09-07T06:37:20.783Z,16.2
2018-09-07T06:42:23.240Z,16.3
2018-09-07T06:47:25.710Z,16.4
2018-09-07T06:52:28.157Z,16.6
2018-09-07T06:57:30.609Z,16.7
2018-09-07T07:02:33.151Z,16.7
2018-09-07T07:07:35.555Z,16.8
2018-09-07T07:12:38.005Z,17
2018-09-07T07:17:40.505Z,17.1
2018-09-07T07:22:42.913Z,17.1
2018-09-07T07:27:45.388Z,17.2
2018-09-07T07:32:47.968Z,17.2
2018-09-07T07:37:50.324Z,17.2
2018-09-07T07:42:53.025Z,17.2
2018-09-07T07:47:55.337Z,17.3
2018-09-07T07:52:57.679Z,17.4
2018-09-07T07:58:00.127Z,17.6
2018-09-07T08:03:02.593Z,17.7
2018-09-07T08:08:05.034Z,17.8
2018-09-07T08:13:07.530Z,17.7
2018-09-07T08:18:09.955Z,17.7
2018-09-07T08:23:12.441Z,17.6
2018-09-07T08:28:14.871Z,17.6
2018-09-07T08:33:17.344Z,17.7
2018-09-07T08:38:19.781Z,17.8
2018-09-07T08:43:22.273Z,18
2018-09-07T08:48:24.713Z,18
2018-09-07T08:53:27.169Z,18.1
2018-09-07T08:58:29.622Z,18.3
2018-09-07T09:03:32.095Z,18.6
2018-09-07T09:08:34.537Z,19
2018-09-07T09:13:37.054Z,19.1
2018-09-07T09:18:39.493Z,19.2
2018-09-07T09:23:42.025Z,19.3
2018-09-07T09:28:44.409Z,19.5
2018-09-07T09:33:46.849Z,19.5
2018-09-07T09:38:49.350Z,19.4
2018-09-07T09:43:52.845Z,19.3
2018-09-07T09:48:54.254Z,19.4
2018-09-07T09:53:56.679Z,20
2018-09-07T09:58:59.127Z,20.7
2018-09-07T10:04:01.713Z,21.2
2018-09-07T10:09:04.116Z,21.5
2018-09-07T10:14:06.889Z,21.4
2018-09-07T10:19:09.058Z,21
2018-09-07T10:24:11.417Z,20.8
2018-09-07T10:29:13.945Z,20.7
2018-09-07T10:34:16.332Z,20.9
2018-09-07T10:39:18.872Z,21.4
2018-09-07T10:44:21.482Z,21.6
2018-09-07T10:49:23.708Z,21.3
2018-09-07T10:54:26.164Z,20.7
2018-09-07T10:59:28.753Z,20.4
2018-09-07T11:04:31.083Z,20.3
2018-09-07T11:09:33.551Z,20.3
2018-09-07T11:14:36.086Z,20.4
2018-09-07T11:19:38.692Z,20.4
2018-09-07T11:24:40.926Z,20.1
2018-09-07T11:29:43.400Z,20
2018-09-07T11:34:45.863Z,20
2018-09-07T11:39:48.292Z,20
2018-09-07T11:44:50.743Z,20.2
2018-09-07T11:49:53.240Z,20.6
2018-09-07T11:54:55.839Z,21.2
2018-09-07T11:59:58.120Z,21.6
2018-09-07T12:05:00.579Z,21.8
2018-09-07T12:10:03.137Z,22.3
2018-09-07T12:15:05.511Z,22.7
2018-09-07T12:20:07.991Z,23
2018-09-07T12:25:10.442Z,23.3
2018-09-07T12:30:12.907Z,23.1
2018-09-07T12:35:15.330Z,23.1
2018-09-07T12:40:17.817Z,23
2018-09-07T12:45:20.255Z,22.5
2018-09-07T12:50:22.737Z,22.3
2018-09-07T12:55:25.205Z,21.9
2018-09-07T13:00:27.669Z,21.8
2018-09-07T13:05:30.101Z,21.6
2018-09-07T13:10:32.557Z,21.6
2018-09-07T13:15:35.012Z,22
2018-09-07T13:20:37.538Z,22.6
2018-09-07T13:25:40.107Z,23
2018-09-07T13:30:42.577Z,23.2
2018-09-07T13:35:45.284Z,23.1
2018-09-07T13:40:47.322Z,22.5
2018-09-07T13:45:49.775Z,22.3
2018-09-07T13:50:52.255Z,22.1
2018-09-07T13:55:54.920Z,21.8
2018-09-07T14:00:57.140Z,21.6
2018-09-07T14:05:59.604Z,21.3
2018-09-07T14:11:02.059Z,21.1
2018-09-07T14:16:04.772Z,21.2
2018-09-07T14:21:06.966Z,21.5
2018-09-07T14:26:09.570Z,21.8
2018-09-07T14:31:11.888Z,22
2018-09-07T14:36:14.429Z,22.2
2018-09-07T14:41:16.802Z,22.3
2018-09-07T14:46:19.269Z,22.6
2018-09-07T14:51:21.734Z,22.5
2018-09-07T14:56:24.188Z,22.8
2018-09-07T15:01:26.645Z,22.9
2018-09-07T15:06:29.099Z,22.7
2018-09-07T15:11:31.568Z,22.3
2018-09-07T15:16:34.061Z,22.3
2018-09-07T15:21:36.481Z,22.3
2018-09-07T15:26:38.942Z,22.3
2018-09-07T15:31:41.399Z,22.3
2018-09-07T15:36:43.857Z,22.2
2018-09-07T15:41:46.420Z,22.1
2018-09-07T15:46:48.772Z,21.7
2018-09-07T15:51:51.320Z,21.4
2018-09-07T15:56:53.689Z,21.2
2018-09-07T16:01:56.135Z,21.1
2018-09-07T16:06:58.616Z,21.1
2018-09-07T16:12:01.060Z,21
2018-09-07T16:17:03.521Z,20.9
2018-09-07T16:22:05.994Z,20.8
2018-09-07T16:27:08.456Z,20.7
2018-09-07T16:32:10.935Z,20.6
2018-09-07T16:37:13.373Z,20.5
2018-09-07T16:42:15.893Z,20.4
2018-09-07T16:47:18.281Z,20.5
2018-09-07T16:52:20.742Z,20.6
2018-09-07T16:57:23.195Z,20.7
2018-09-07T17:02:25.646Z,20.6
2018-09-07T17:07:28.136Z,20.4
2018-09-07T17:12:31.132Z,20
2018-09-07T17:22:35.485Z,19.4
2018-09-07T17:27:37.940Z,19
2018-09-07T17:32:40.405Z,18.6
2018-09-07T17:37:42.995Z,18.3
2018-09-07T17:42:45.326Z,18.1
2018-09-07T17:47:47.774Z,17.9
2018-09-07T17:52:50.259Z,17.8
2018-09-07T17:57:52.693Z,17.7
2018-09-07T18:02:55.153Z,17.7
2018-09-07T18:07:57.600Z,17.7
2018-09-07T18:13:00.065Z,17.8
2018-09-07T18:18:02.533Z,17.8
2018-09-07T18:23:05.009Z,17.7
2018-09-07T18:28:07.956Z,17.5
2018-09-07T18:33:09.897Z,17.3
2018-09-07T18:38:12.365Z,17.2
2018-09-07T18:43:14.896Z,17
2018-09-07T18:48:17.298Z,16.9
2018-09-07T18:53:19.833Z,16.9
2018-09-07T18:58:22.471Z,16.9
2018-09-07T19:03:24.657Z,16.9
2018-09-07T19:08:27.127Z,16.9
2018-09-07T19:13:29.606Z,16.9
2018-09-07T19:18:32.019Z,16.8
2018-09-07T19:23:34.529Z,16.8
2018-09-07T19:28:36.990Z,16.8
2018-09-07T19:33:39.414Z,16.8
2018-09-07T19:38:42.336Z,16.7
2018-09-07T19:43:44.337Z,16.6
2018-09-07T19:48:46.773Z,16.6
2018-09-07T19:53:49.229Z,16.6
2018-09-07T20:03:54.151Z,16.5
2018-09-07T20:08:56.599Z,16.5
2018-09-07T20:13:59.137Z,16.5
2018-09-07T20:19:01.656Z,16.5
2018-09-07T20:24:03.996Z,16.4
2018-09-07T20:29:06.455Z,16.3
2018-09-07T20:34:11.466Z,16.3
2018-09-07T20:39:11.361Z,16.2
2018-09-07T20:44:13.846Z,16.2
2018-09-07T20:49:16.262Z,16.1
2018-09-07T20:54:18.733Z,15.9
2018-09-07T20:59:21.206Z,15.8
2018-09-07T21:04:23.651Z,15.8
2018-09-07T21:09:26.154Z,15.9
2018-09-07T21:14:28.692Z,15.9
2018-09-07T21:19:31.055Z,15.9
2018-09-07T21:24:33.472Z,15.9
2018-09-07T21:29:35.968Z,15.9
2018-09-07T21:34:38.549Z,15.9
2018-09-07T21:39:40.858Z,15.8
2018-09-07T21:44:43.554Z,15.7
2018-09-07T21:49:45.777Z,15.5
2018-09-07T21:54:48.254Z,15.3
2018-09-07T21:59:50.696Z,15.1
2018-09-07T22:04:53.152Z,15
2018-09-07T22:09:55.686Z,14.8
2018-09-07T22:14:58.047Z,14.6
2018-09-07T22:20:00.538Z,14.5
2018-09-07T22:25:03.013Z,14.4
2018-09-07T22:30:05.459Z,14.3
2018-09-07T22:35:07.880Z,14.2
2018-09-07T22:40:10.359Z,14.1
2018-09-07T22:45:12.847Z,14
2018-09-07T22:50:15.332Z,13.9
2018-09-07T23:00:20.183Z,13.6
2018-09-07T23:05:22.641Z,13.5
2018-09-07T23:10:25.148Z,13.5
2018-09-07T23:15:27.546Z,13.4
2018-09-07T23:20:30.008Z,13.2
2018-09-07T23:25:32.523Z,13.2
2018-09-07T23:30:34.941Z,13.1
2018-09-07T23:35:37.399Z,13
2018-09-07T23:40:39.852Z,13
2018-09-07T23:45:42.354Z,13.1
2018-09-07T23:50:44.758Z,13
2018-09-07T23:55:47.283Z,13.1
